sensor_id;sensor_type;location;lat;lon;timestamp;pressure;altitude;pressure_sealevel;temperature;humidity
4024;BME280;2026;51.002;13.668;2023-05-25T00:04:19;99717.34;;;8.09;88.40
4024;BME280;2026;51.002;13.668;2023-05-25T00:09:23;99721.94;;;8.07;88.56
4024;BME280;2026;51.002;13.668;2023-05-25T00:14:27;99719.34;;;7.83;88.69
4024;BME280;2026;51.002;13.668;2023-05-25T00:19:31;99731.72;;;7.90;88.44
4024;BME280;2026;51.002;13.668;2023-05-25T00:24:34;99726.84;;;7.86;87.96
4024;BME280;2026;51.002;13.668;2023-05-25T00:29:39;99724.66;;;7.75;88.48
4024;BME280;2026;51.002;13.668;2023-05-25T00:34:42;99722.94;;;7.67;89.80
4024;BME280;2026;51.002;13.668;2023-05-25T00:39:45;99717.19;;;7.72;88.80
4024;BME280;2026;51.002;13.668;2023-05-25T00:44:49;99711.22;;;7.63;88.61
4024;BME280;2026;51.002;13.668;2023-05-25T00:49:52;99704.66;;;7.44;89.88
4024;BME280;2026;51.002;13.668;2023-05-25T00:54:56;99704.97;;;7.49;89.44
4024;BME280;2026;51.002;13.668;2023-05-25T01:00:04;99708.84;;;7.53;89.54
4024;BME280;2026;51.002;13.668;2023-05-25T01:05:12;99711.06;;;7.41;89.42
4024;BME280;2026;51.002;13.668;2023-05-25T01:10:21;99714.00;;;7.38;89.58
4024;BME280;2026;51.002;13.668;2023-05-25T01:15:28;99715.41;;;7.26;90.03
4024;BME280;2026;51.002;13.668;2023-05-25T01:20:31;99719.22;;;7.38;88.87
4024;BME280;2026;51.002;13.668;2023-05-25T01:25:38;99720.63;;;7.26;89.24
4024;BME280;2026;51.002;13.668;2023-05-25T01:30:46;99716.78;;;7.13;90.07
4024;BME280;2026;51.002;13.668;2023-05-25T01:35:50;99724.09;;;7.18;90.00
4024;BME280;2026;51.002;13.668;2023-05-25T01:40:55;99725.66;;;6.96;91.64
4024;BME280;2026;51.002;13.668;2023-05-25T01:46:08;99725.66;;;6.96;91.24
4024;BME280;2026;51.002;13.668;2023-05-25T01:51:16;99729.34;;;7.10;89.93
4024;BME280;2026;51.002;13.668;2023-05-25T01:56:23;99727.28;;;6.97;90.46
4024;BME280;2026;51.002;13.668;2023-05-25T02:01:29;99718.22;;;6.84;90.94
4024;BME280;2026;51.002;13.668;2023-05-25T02:06:34;99720.81;;;6.84;90.87
4024;BME280;2026;51.002;13.668;2023-05-25T02:11:41;99720.06;;;6.75;90.97
4024;BME280;2026;51.002;13.668;2023-05-25T02:16:44;99721.56;;;6.61;92.24
4024;BME280;2026;51.002;13.668;2023-05-25T02:21:47;99729.19;;;6.71;91.29
4024;BME280;2026;51.002;13.668;2023-05-25T02:26:52;99735.28;;;6.55;91.98
4024;BME280;2026;51.002;13.668;2023-05-25T02:31:56;99731.19;;;6.61;92.48
4024;BME280;2026;51.002;13.668;2023-05-25T02:36:59;99747.72;;;6.28;95.06
4024;BME280;2026;51.002;13.668;2023-05-25T02:42:04;99748.03;;;6.33;94.83
4024;BME280;2026;51.002;13.668;2023-05-25T02:47:07;99745.72;;;6.39;93.76
4024;BME280;2026;51.002;13.668;2023-05-25T02:52:10;99758.34;;;5.93;97.53
4024;BME280;2026;51.002;13.668;2023-05-25T02:57:15;99751.34;;;6.02;96.71
4024;BME280;2026;51.002;13.668;2023-05-25T03:02:18;99751.47;;;6.09;96.65
4024;BME280;2026;51.002;13.668;2023-05-25T03:07:22;99754.25;;;6.07;95.58
4024;BME280;2026;51.002;13.668;2023-05-25T03:12:30;99756.16;;;6.39;94.49
4024;BME280;2026;51.002;13.668;2023-05-25T03:17:33;99763.44;;;6.60;93.25
4024;BME280;2026;51.002;13.668;2023-05-25T03:22:36;99763.28;;;6.53;93.28
4024;BME280;2026;51.002;13.668;2023-05-25T03:27:40;99762.28;;;6.54;93.49
4024;BME280;2026;51.002;13.668;2023-05-25T03:32:44;99771.88;;;6.62;93.36
4024;BME280;2026;51.002;13.668;2023-05-25T03:37:47;99777.16;;;6.85;92.14
4024;BME280;2026;51.002;13.668;2023-05-25T03:42:52;99775.19;;;6.96;91.68
4024;BME280;2026;51.002;13.668;2023-05-25T03:47:55;99784.59;;;7.13;91.39
4024;BME280;2026;51.002;13.668;2023-05-25T03:52:59;99800.78;;;7.32;90.15
4024;BME280;2026;51.002;13.668;2023-05-25T03:58:03;99799.25;;;7.69;89.71
4024;BME280;2026;51.002;13.668;2023-05-25T04:03:06;99809.00;;;8.98;84.03
4024;BME280;2026;51.002;13.668;2023-05-25T04:08:12;99806.63;;;10.55;77.45
4024;BME280;2026;51.002;13.668;2023-05-25T04:13:20;99805.44;;;10.58;76.65
4024;BME280;2026;51.002;13.668;2023-05-25T04:18:23;99809.44;;;10.82;75.51
4024;BME280;2026;51.002;13.668;2023-05-25T04:23:26;99820.03;;;11.92;70.95
4024;BME280;2026;51.002;13.668;2023-05-25T04:28:31;99811.34;;;12.45;69.34
4024;BME280;2026;51.002;13.668;2023-05-25T04:33:42;99811.13;;;13.58;65.83
4024;BME280;2026;51.002;13.668;2023-05-25T04:38:55;99814.06;;;12.84;66.58
4024;BME280;2026;51.002;13.668;2023-05-25T04:43:59;99817.00;;;13.15;68.04
4024;BME280;2026;51.002;13.668;2023-05-25T04:49:17;99819.06;;;13.84;66.11
4024;BME280;2026;51.002;13.668;2023-05-25T04:54:20;99822.66;;;13.25;67.30
4024;BME280;2026;51.002;13.668;2023-05-25T04:59:25;99819.19;;;14.21;65.85
4024;BME280;2026;51.002;13.668;2023-05-25T05:04:28;99819.56;;;14.69;63.77
4024;BME280;2026;51.002;13.668;2023-05-25T05:09:31;99809.44;;;14.84;62.94
4024;BME280;2026;51.002;13.668;2023-05-25T05:14:37;99808.97;;;15.06;63.79
4024;BME280;2026;51.002;13.668;2023-05-25T05:19:40;99808.00;;;15.50;62.81
4024;BME280;2026;51.002;13.668;2023-05-25T05:24:44;99803.63;;;15.86;61.92
4024;BME280;2026;51.002;13.668;2023-05-25T05:29:55;99817.53;;;16.65;60.27
4024;BME280;2026;51.002;13.668;2023-05-25T05:34:59;99804.22;;;16.00;61.05
4024;BME280;2026;51.002;13.668;2023-05-25T05:40:11;99806.38;;;15.79;61.42
4024;BME280;2026;51.002;13.668;2023-05-25T05:45:17;99813.97;;;16.12;59.66
4024;BME280;2026;51.002;13.668;2023-05-25T05:50:20;99812.72;;;17.15;58.43
4024;BME280;2026;51.002;13.668;2023-05-25T05:55:25;99816.66;;;17.76;55.93
4024;BME280;2026;51.002;13.668;2023-05-25T06:00:29;99827.75;;;17.55;56.86
4024;BME280;2026;51.002;13.668;2023-05-25T06:05:32;99822.72;;;16.60;57.46
4024;BME280;2026;51.002;13.668;2023-05-25T06:10:36;99822.91;;;18.16;52.45
4024;BME280;2026;51.002;13.668;2023-05-25T06:15:40;99822.63;;;18.34;53.49
4024;BME280;2026;51.002;13.668;2023-05-25T06:20:49;99824.63;;;18.44;51.83
4024;BME280;2026;51.002;13.668;2023-05-25T06:25:52;99816.50;;;18.51;54.58
4024;BME280;2026;51.002;13.668;2023-05-25T06:30:57;99822.44;;;16.97;56.27
4024;BME280;2026;51.002;13.668;2023-05-25T06:36:00;99815.31;;;18.86;54.02
4024;BME280;2026;51.002;13.668;2023-05-25T06:41:03;99824.41;;;17.94;52.71
4024;BME280;2026;51.002;13.668;2023-05-25T06:46:08;99823.19;;;17.10;56.07
4024;BME280;2026;51.002;13.668;2023-05-25T06:51:11;99824.50;;;18.17;54.67
4024;BME280;2026;51.002;13.668;2023-05-25T06:56:14;99828.13;;;17.47;54.80
4024;BME280;2026;51.002;13.668;2023-05-25T07:01:19;99823.53;;;18.62;54.50
4024;BME280;2026;51.002;13.668;2023-05-25T07:06:22;99832.19;;;17.67;53.51
4024;BME280;2026;51.002;13.668;2023-05-25T07:11:24;99829.63;;;18.40;53.08
4024;BME280;2026;51.002;13.668;2023-05-25T07:16:30;99830.50;;;19.08;51.44
4024;BME280;2026;51.002;13.668;2023-05-25T07:21:33;99831.44;;;19.24;51.64
4024;BME280;2026;51.002;13.668;2023-05-25T07:26:37;99832.31;;;18.23;52.60
4024;BME280;2026;51.002;13.668;2023-05-25T07:31:42;99827.47;;;18.60;52.08
4024;BME280;2026;51.002;13.668;2023-05-25T07:36:46;99831.41;;;17.83;52.20
4024;BME280;2026;51.002;13.668;2023-05-25T07:41:49;99835.31;;;17.06;54.50
4024;BME280;2026;51.002;13.668;2023-05-25T07:46:53;99828.13;;;19.12;55.34
4024;BME280;2026;51.002;13.668;2023-05-25T07:51:56;99818.84;;;20.02;49.77
4024;BME280;2026;51.002;13.668;2023-05-25T07:56:59;99832.94;;;17.96;55.58
4024;BME280;2026;51.002;13.668;2023-05-25T08:02:03;99846.00;;;17.69;54.69
4024;BME280;2026;51.002;13.668;2023-05-25T08:07:07;99839.97;;;18.59;52.95
4024;BME280;2026;51.002;13.668;2023-05-25T08:12:10;99843.78;;;20.28;52.47
4024;BME280;2026;51.002;13.668;2023-05-25T08:17:34;99841.56;;;18.21;54.54
4024;BME280;2026;51.002;13.668;2023-05-25T08:22:37;99839.56;;;20.38;52.50
4024;BME280;2026;51.002;13.668;2023-05-25T08:27:40;99849.06;;;17.02;54.52
4024;BME280;2026;51.002;13.668;2023-05-25T08:32:45;99846.91;;;18.82;49.49
4024;BME280;2026;51.002;13.668;2023-05-25T08:37:48;99848.81;;;19.59;46.83
4024;BME280;2026;51.002;13.668;2023-05-25T08:42:51;99847.59;;;19.72;47.58
4024;BME280;2026;51.002;13.668;2023-05-25T08:47:57;99853.16;;;17.68;48.98
4024;BME280;2026;51.002;13.668;2023-05-25T08:53:04;99856.53;;;18.66;47.50
4024;BME280;2026;51.002;13.668;2023-05-25T08:58:14;99851.63;;;20.45;46.22
4024;BME280;2026;51.002;13.668;2023-05-25T09:03:20;99845.41;;;20.83;48.11
4024;BME280;2026;51.002;13.668;2023-05-25T09:08:24;99853.13;;;19.98;45.17
4024;BME280;2026;51.002;13.668;2023-05-25T09:13:28;99857.41;;;18.72;49.03
4024;BME280;2026;51.002;13.668;2023-05-25T09:18:32;99843.72;;;19.53;49.43
4024;BME280;2026;51.002;13.668;2023-05-25T09:23:36;99862.75;;;19.99;46.07
4024;BME280;2026;51.002;13.668;2023-05-25T09:28:44;99870.16;;;18.53;48.60
4024;BME280;2026;51.002;13.668;2023-05-25T09:33:48;99867.44;;;20.68;49.84
4024;BME280;2026;51.002;13.668;2023-05-25T09:38:51;99865.59;;;19.92;47.91
4024;BME280;2026;51.002;13.668;2023-05-25T09:43:55;99865.59;;;18.48;50.41
4024;BME280;2026;51.002;13.668;2023-05-25T09:49:13;99870.25;;;19.75;50.12
4024;BME280;2026;51.002;13.668;2023-05-25T09:54:16;99877.81;;;19.88;49.04
4024;BME280;2026;51.002;13.668;2023-05-25T09:59:20;99879.81;;;22.31;45.78
4024;BME280;2026;51.002;13.668;2023-05-25T10:04:25;99883.03;;;20.05;45.64
4024;BME280;2026;51.002;13.668;2023-05-25T10:09:29;99886.28;;;18.29;50.41
4024;BME280;2026;51.002;13.668;2023-05-25T10:14:35;99873.22;;;18.84;49.70
4024;BME280;2026;51.002;13.668;2023-05-25T10:19:44;99874.75;;;19.47;50.93
4024;BME280;2026;51.002;13.668;2023-05-25T10:24:53;99878.13;;;19.64;47.56
4024;BME280;2026;51.002;13.668;2023-05-25T10:29:58;99875.91;;;20.11;49.87
4024;BME280;2026;51.002;13.668;2023-05-25T10:35:05;99870.00;;;20.04;47.81
4024;BME280;2026;51.002;13.668;2023-05-25T10:40:08;99875.81;;;18.79;48.87
4024;BME280;2026;51.002;13.668;2023-05-25T10:45:12;99877.84;;;19.61;46.41
4024;BME280;2026;51.002;13.668;2023-05-25T10:50:21;99872.34;;;20.92;45.53
4024;BME280;2026;51.002;13.668;2023-05-25T10:55:27;99871.50;;;22.33;44.74
4024;BME280;2026;51.002;13.668;2023-05-25T11:00:32;99878.69;;;19.39;47.37
4024;BME280;2026;51.002;13.668;2023-05-25T11:05:38;99864.41;;;20.43;47.29
4024;BME280;2026;51.002;13.668;2023-05-25T11:10:50;99858.88;;;20.12;47.78
4024;BME280;2026;51.002;13.668;2023-05-25T11:16:17;99847.38;;;21.08;44.39
4024;BME280;2026;51.002;13.668;2023-05-25T11:21:39;99836.38;;;20.89;44.77
4024;BME280;2026;51.002;13.668;2023-05-25T11:26:54;99838.44;;;21.56;44.49
4024;BME280;2026;51.002;13.668;2023-05-25T11:31:58;99841.06;;;19.53;46.56
4024;BME280;2026;51.002;13.668;2023-05-25T11:37:03;99846.56;;;20.97;42.24
4024;BME280;2026;51.002;13.668;2023-05-25T11:42:07;99849.53;;;19.49;46.12
4024;BME280;2026;51.002;13.668;2023-05-25T11:47:12;99854.94;;;20.68;44.60
4024;BME280;2026;51.002;13.668;2023-05-25T11:52:20;99836.31;;;22.05;40.97
4024;BME280;2026;51.002;13.668;2023-05-25T11:57:24;99834.66;;;22.30;41.36
4024;BME280;2026;51.002;13.668;2023-05-25T12:02:36;99832.53;;;22.32;42.11
4024;BME280;2026;51.002;13.668;2023-05-25T12:07:43;99820.69;;;22.69;41.04
4024;BME280;2026;51.002;13.668;2023-05-25T12:12:48;99827.38;;;22.51;43.20
4024;BME280;2026;51.002;13.668;2023-05-25T12:17:52;99822.81;;;22.57;40.47
4024;BME280;2026;51.002;13.668;2023-05-25T12:22:57;99824.88;;;20.78;46.98
4024;BME280;2026;51.002;13.668;2023-05-25T12:28:09;99810.88;;;22.28;43.59
4024;BME280;2026;51.002;13.668;2023-05-25T12:33:12;99819.97;;;21.23;44.41
4024;BME280;2026;51.002;13.668;2023-05-25T12:38:19;99813.34;;;21.73;42.64
4024;BME280;2026;51.002;13.668;2023-05-25T12:43:22;99799.94;;;21.10;42.44
4024;BME280;2026;51.002;13.668;2023-05-25T12:48:25;99805.25;;;21.05;43.24
4024;BME280;2026;51.002;13.668;2023-05-25T12:53:30;99801.25;;;19.63;44.70
4024;BME280;2026;51.002;13.668;2023-05-25T12:58:34;99797.72;;;20.86;44.43
4024;BME280;2026;51.002;13.668;2023-05-25T13:03:37;99790.38;;;22.08;43.10
4024;BME280;2026;51.002;13.668;2023-05-25T13:08:41;99782.63;;;21.23;41.70
4024;BME280;2026;51.002;13.668;2023-05-25T13:13:44;99790.88;;;21.01;42.95
4024;BME280;2026;51.002;13.668;2023-05-25T13:18:47;99792.66;;;20.26;45.38
4024;BME280;2026;51.002;13.668;2023-05-25T13:23:51;99787.19;;;22.06;43.74
4024;BME280;2026;51.002;13.668;2023-05-25T13:28:54;99783.69;;;22.87;41.53
4024;BME280;2026;51.002;13.668;2023-05-25T13:33:57;99782.56;;;22.37;40.91
4024;BME280;2026;51.002;13.668;2023-05-25T13:39:02;99781.25;;;20.95;42.45
4024;BME280;2026;51.002;13.668;2023-05-25T13:44:05;99770.63;;;21.47;39.76
4024;BME280;2026;51.002;13.668;2023-05-25T13:49:09;99770.63;;;21.26;42.39
4024;BME280;2026;51.002;13.668;2023-05-25T13:54:15;99761.59;;;20.48;44.08
4024;BME280;2026;51.002;13.668;2023-05-25T13:59:19;99767.84;;;20.79;43.69
4024;BME280;2026;51.002;13.668;2023-05-25T14:04:22;99760.47;;;21.12;44.53
4024;BME280;2026;51.002;13.668;2023-05-25T14:09:26;99753.44;;;22.36;42.68
4024;BME280;2026;51.002;13.668;2023-05-25T14:14:29;99757.84;;;21.18;42.46
4024;BME280;2026;51.002;13.668;2023-05-25T14:19:33;99758.56;;;20.92;43.76
4024;BME280;2026;51.002;13.668;2023-05-25T14:24:38;99754.88;;;21.09;42.43
4024;BME280;2026;51.002;13.668;2023-05-25T14:29:41;99763.66;;;20.30;43.53
4024;BME280;2026;51.002;13.668;2023-05-25T14:34:44;99751.22;;;20.46;44.53
4024;BME280;2026;51.002;13.668;2023-05-25T14:39:48;99743.13;;;22.08;42.04
4024;BME280;2026;51.002;13.668;2023-05-25T14:44:51;99757.84;;;21.18;41.91
4024;BME280;2026;51.002;13.668;2023-05-25T14:49:54;99746.34;;;22.00;42.76
4024;BME280;2026;51.002;13.668;2023-05-25T14:54:59;99750.09;;;21.26;42.01
4024;BME280;2026;51.002;13.668;2023-05-25T15:00:02;99744.53;;;20.43;44.61
4024;BME280;2026;51.002;13.668;2023-05-25T15:05:05;99744.66;;;20.75;43.40
4024;BME280;2026;51.002;13.668;2023-05-25T15:10:10;99747.06;;;20.81;43.31
4024;BME280;2026;51.002;13.668;2023-05-25T15:15:13;99742.34;;;21.30;42.68
4024;BME280;2026;51.002;13.668;2023-05-25T15:20:17;99743.72;;;21.85;43.26
4024;BME280;2026;51.002;13.668;2023-05-25T15:25:22;99754.09;;;21.71;43.31
4024;BME280;2026;51.002;13.668;2023-05-25T15:30:36;99758.38;;;21.46;44.16
4024;BME280;2026;51.002;13.668;2023-05-25T15:35:39;99749.25;;;20.95;43.53
4024;BME280;2026;51.002;13.668;2023-05-25T15:40:43;99742.31;;;20.99;44.49
4024;BME280;2026;51.002;13.668;2023-05-25T15:45:46;99740.38;;;20.68;45.01
4024;BME280;2026;51.002;13.668;2023-05-25T15:50:49;99738.09;;;21.60;44.76
4024;BME280;2026;51.002;13.668;2023-05-25T15:55:54;99725.16;;;22.24;42.65
4024;BME280;2026;51.002;13.668;2023-05-25T16:00:57;99727.94;;;20.21;45.87
4024;BME280;2026;51.002;13.668;2023-05-25T16:06:00;99722.09;;;21.19;46.14
4024;BME280;2026;51.002;13.668;2023-05-25T16:11:05;99720.94;;;20.78;44.85
4024;BME280;2026;51.002;13.668;2023-05-25T16:16:08;99716.75;;;21.19;44.15
4024;BME280;2026;51.002;13.668;2023-05-25T16:21:11;99713.94;;;20.51;44.36
4024;BME280;2026;51.002;13.668;2023-05-25T16:26:15;99709.31;;;20.31;46.84
4024;BME280;2026;51.002;13.668;2023-05-25T16:31:18;99706.94;;;20.35;47.08
4024;BME280;2026;51.002;13.668;2023-05-25T16:36:21;99708.69;;;20.08;47.12
4024;BME280;2026;51.002;13.668;2023-05-25T16:41:28;99711.41;;;21.08;45.96
4024;BME280;2026;51.002;13.668;2023-05-25T16:46:31;99715.06;;;20.76;46.03
4024;BME280;2026;51.002;13.668;2023-05-25T16:51:34;99711.03;;;20.58;46.00
4024;BME280;2026;51.002;13.668;2023-05-25T16:56:39;99699.69;;;21.04;45.89
4024;BME280;2026;51.002;13.668;2023-05-25T17:01:42;99701.56;;;20.98;44.96
4024;BME280;2026;51.002;13.668;2023-05-25T17:06:48;99702.09;;;21.06;44.89
4024;BME280;2026;51.002;13.668;2023-05-25T17:11:53;99705.97;;;19.98;46.46
4024;BME280;2026;51.002;13.668;2023-05-25T17:17:00;99712.47;;;19.36;48.27
4024;BME280;2026;51.002;13.668;2023-05-25T17:22:03;99705.22;;;20.02;47.58
4024;BME280;2026;51.002;13.668;2023-05-25T17:27:07;99710.75;;;20.01;47.46
4024;BME280;2026;51.002;13.668;2023-05-25T17:32:10;99704.94;;;19.61;47.44
4024;BME280;2026;51.002;13.668;2023-05-25T17:37:13;99710.09;;;19.78;47.68
4024;BME280;2026;51.002;13.668;2023-05-25T17:42:18;99710.13;;;19.83;47.68
4024;BME280;2026;51.002;13.668;2023-05-25T17:47:21;99710.13;;;19.83;48.72
4024;BME280;2026;51.002;13.668;2023-05-25T17:52:24;99713.53;;;19.35;49.94
4024;BME280;2026;51.002;13.668;2023-05-25T17:57:28;99717.41;;;19.00;49.54
4024;BME280;2026;51.002;13.668;2023-05-25T18:02:31;99714.56;;;19.34;49.48
4024;BME280;2026;51.002;13.668;2023-05-25T18:07:35;99715.38;;;19.35;49.16
4024;BME280;2026;51.002;13.668;2023-05-25T18:12:39;99712.88;;;19.23;49.92
4024;BME280;2026;51.002;13.668;2023-05-25T18:17:42;99716.28;;;19.18;50.90
4024;BME280;2026;51.002;13.668;2023-05-25T18:22:45;99723.47;;;19.18;51.52
4024;BME280;2026;51.002;13.668;2023-05-25T18:27:50;99724.59;;;19.00;51.67
4024;BME280;2026;51.002;13.668;2023-05-25T18:32:53;99730.81;;;18.83;51.83
4024;BME280;2026;51.002;13.668;2023-05-25T18:37:56;99731.00;;;18.76;51.85
4024;BME280;2026;51.002;13.668;2023-05-25T18:43:00;99731.13;;;18.64;52.28
4024;BME280;2026;51.002;13.668;2023-05-25T18:48:03;99732.44;;;18.39;52.64
4024;BME280;2026;51.002;13.668;2023-05-25T18:53:08;99739.47;;;18.29;53.21
4024;BME280;2026;51.002;13.668;2023-05-25T18:58:13;99741.03;;;18.07;54.21
4024;BME280;2026;51.002;13.668;2023-05-25T19:03:16;99752.47;;;17.91;55.36
4024;BME280;2026;51.002;13.668;2023-05-25T19:08:19;99757.03;;;17.78;56.02
4024;BME280;2026;51.002;13.668;2023-05-25T19:13:26;99765.34;;;17.65;56.32
4024;BME280;2026;51.002;13.668;2023-05-25T19:18:29;99760.34;;;17.51;57.03
4024;BME280;2026;51.002;13.668;2023-05-25T19:23:32;99778.88;;;17.34;57.75
4024;BME280;2026;51.002;13.668;2023-05-25T19:28:36;99784.22;;;17.22;58.27
4024;BME280;2026;51.002;13.668;2023-05-25T19:33:39;99796.25;;;17.13;58.96
4024;BME280;2026;51.002;13.668;2023-05-25T19:38:42;99794.91;;;16.98;59.30
4024;BME280;2026;51.002;13.668;2023-05-25T19:43:47;99793.53;;;16.84;60.53
4024;BME280;2026;51.002;13.668;2023-05-25T19:48:50;99795.53;;;16.76;60.33
4024;BME280;2026;51.002;13.668;2023-05-25T19:53:53;99796.69;;;16.69;61.12
4024;BME280;2026;51.002;13.668;2023-05-25T19:58:58;99800.63;;;16.54;61.35
4024;BME280;2026;51.002;13.668;2023-05-25T20:04:01;99806.50;;;16.44;62.21
4024;BME280;2026;51.002;13.668;2023-05-25T20:09:04;99809.97;;;16.33;62.78
4024;BME280;2026;51.002;13.668;2023-05-25T20:14:09;99807.78;;;16.30;62.79
4024;BME280;2026;51.002;13.668;2023-05-25T20:19:12;99809.63;;;16.29;63.12
4024;BME280;2026;51.002;13.668;2023-05-25T20:24:15;99821.25;;;16.16;63.44
4024;BME280;2026;51.002;13.668;2023-05-25T20:29:19;99822.72;;;16.00;64.10
4024;BME280;2026;51.002;13.668;2023-05-25T20:34:22;99824.88;;;15.79;64.84
4024;BME280;2026;51.002;13.668;2023-05-25T20:39:25;99829.38;;;15.79;65.37
4024;BME280;2026;51.002;13.668;2023-05-25T20:44:29;99829.88;;;15.69;66.30
4024;BME280;2026;51.002;13.668;2023-05-25T20:49:33;99826.25;;;15.39;68.26
4024;BME280;2026;51.002;13.668;2023-05-25T20:54:36;99829.25;;;15.24;68.46
4024;BME280;2026;51.002;13.668;2023-05-25T20:59:46;99835.66;;;15.17;68.92
4024;BME280;2026;51.002;13.668;2023-05-25T21:04:49;99840.00;;;14.92;70.93
4024;BME280;2026;51.002;13.668;2023-05-25T21:09:52;99852.25;;;14.87;70.88
4024;BME280;2026;51.002;13.668;2023-05-25T21:14:58;99851.25;;;14.69;71.75
4024;BME280;2026;51.002;13.668;2023-05-25T21:20:01;99851.28;;;14.62;72.31
4024;BME280;2026;51.002;13.668;2023-05-25T21:25:05;99863.75;;;14.55;72.30
4024;BME280;2026;51.002;13.668;2023-05-25T21:30:10;99861.63;;;14.45;72.88
4024;BME280;2026;51.002;13.668;2023-05-25T21:35:13;99862.56;;;14.25;73.83
4024;BME280;2026;51.002;13.668;2023-05-25T21:40:18;99867.91;;;14.19;74.11
4024;BME280;2026;51.002;13.668;2023-05-25T21:45:23;99869.91;;;13.91;75.62
4024;BME280;2026;51.002;13.668;2023-05-25T21:50:26;99871.72;;;13.91;75.40
4024;BME280;2026;51.002;13.668;2023-05-25T21:55:29;99871.34;;;13.87;75.33
4024;BME280;2026;51.002;13.668;2023-05-25T22:00:33;99880.78;;;13.69;76.64
4024;BME280;2026;51.002;13.668;2023-05-25T22:05:37;99880.19;;;13.67;76.55
4024;BME280;2026;51.002;13.668;2023-05-25T22:10:40;99885.25;;;13.69;76.15
4024;BME280;2026;51.002;13.668;2023-05-25T22:15:45;99887.38;;;13.46;77.06
4024;BME280;2026;51.002;13.668;2023-05-25T22:20:48;99891.09;;;13.39;77.89
4024;BME280;2026;51.002;13.668;2023-05-25T22:25:51;99891.44;;;13.42;77.14
4024;BME280;2026;51.002;13.668;2023-05-25T22:30:56;99892.06;;;13.38;76.90
4024;BME280;2026;51.002;13.668;2023-05-25T22:35:58;99889.91;;;13.21;78.13
4024;BME280;2026;51.002;13.668;2023-05-25T22:41:02;99902.78;;;12.36;83.77
4024;BME280;2026;51.002;13.668;2023-05-25T22:46:06;99900.53;;;12.74;80.69
4024;BME280;2026;51.002;13.668;2023-05-25T22:51:09;99901.34;;;12.81;79.84
4024;BME280;2026;51.002;13.668;2023-05-25T22:56:12;99905.19;;;12.78;79.95
4024;BME280;2026;51.002;13.668;2023-05-25T23:01:16;99901.56;;;12.73;80.40
4024;BME280;2026;51.002;13.668;2023-05-25T23:06:19;99902.38;;;12.66;80.43
4024;BME280;2026;51.002;13.668;2023-05-25T23:11:22;99909.44;;;12.59;80.94
4024;BME280;2026;51.002;13.668;2023-05-25T23:16:27;99906.63;;;12.54;81.85
4024;BME280;2026;51.002;13.668;2023-05-25T23:21:30;99903.19;;;12.33;82.53
4024;BME280;2026;51.002;13.668;2023-05-25T23:26:34;99902.19;;;12.34;82.36
4024;BME280;2026;51.002;13.668;2023-05-25T23:31:38;99909.22;;;12.20;83.15
4024;BME280;2026;51.002;13.668;2023-05-25T23:36:41;99902.75;;;11.96;84.33
4024;BME280;2026;51.002;13.668;2023-05-25T23:41:44;99904.13;;;11.85;85.36
4024;BME280;2026;51.002;13.668;2023-05-25T23:46:49;99900.94;;;12.03;84.39
4024;BME280;2026;51.002;13.668;2023-05-25T23:51:52;99896.84;;;11.87;84.60
4024;BME280;2026;51.002;13.668;2023-05-25T23:56:55;99904.88;;;11.59;86.74
